| time (UTC) | temp F | wind direction | speed MPH | gust MPH | rain 1hr in | rain 24hr in | rain mn in | humidity % | barometer mb |
| 20260507024610 | 68 | 215 | 1.0 | 10.0 | 0.00 | 0.00 | 0.00 | 60 | 1016.5 |
| 20260507023056 | 69 | 0 | 1.0 | 7.0 | 0.00 | 0.00 | 0.00 | 58 | 1016.3 |
| 20260507021558 | 70 | 0 | 0.0 | 7.0 | 0.00 | 0.00 | 0.00 | 57 | 1016.1 |
| 20260507020104 | 71 | 224 | 1.0 | 9.0 | 0.00 | 0.00 | 0.00 | 55 | 1016.0 |
| 20260507014606 | 72 | 302 | 1.0 | 7.0 | 0.00 | 0.00 | 0.00 | 53 | 1015.9 |
| 20260507013103 | 73 | 0 | 1.0 | 8.0 | 0.00 | 0.00 | 0.00 | 52 | 1015.7 |
| 20260507011600 | 74 | 0 | 0.0 | 6.0 | 0.00 | 0.00 | 0.00 | 50 | 1015.6 |
| 20260507010058 | 74 | 204 | 3.0 | 10.0 | 0.00 | 0.00 | 0.00 | 50 | 1015.6 |
| 20260507004556 | 75 | 0 | 1.0 | 11.0 | 0.00 | 0.00 | 0.00 | 50 | 1015.4 |
| 20260507003111 | 75 | 242 | 1.0 | 12.0 | 0.00 | 0.00 | 0.00 | 49 | 1015.4 |
| 20260507001602 | 76 | 0 | 1.0 | 8.0 | 0.00 | 0.00 | 0.00 | 47 | 1015.5 |
| 20260507000057 | 77 | 0 | 2.0 | 10.0 | 0.00 | 0.00 | 0.00 | 47 | 1015.4 |
| 20260506234606 | 77 | 244 | 1.0 | 9.0 | 0.00 | 0.00 | 0.00 | 46 | 1015.3 |
| 20260506233059 | 78 | 229 | 1.0 | 9.0 | 0.00 | 0.00 | 0.00 | 45 | 1015.3 |
| 20260506231556 | 79 | 0 | 2.0 | 10.0 | 0.00 | 0.00 | 0.00 | 45 | 1015.2 |
| 20260506230104 | 79 | 234 | 2.0 | 10.0 | 0.00 | 0.00 | 0.00 | 44 | 1015.5 |
| 20260506224600 | 80 | 0 | 0.0 | 9.0 | 0.00 | 0.00 | 0.00 | 43 | 1015.4 |
| 20260506223056 | 80 | 0 | 0.0 | 7.0 | 0.00 | 0.00 | 0.00 | 41 | 1015.5 |
| 20260506221555 | 80 | 0 | 0.0 | 9.0 | 0.00 | 0.00 | 0.00 | 41 | 1015.8 |
| 20260506220101 | 79 | 0 | 0.0 | 8.0 | 0.00 | 0.00 | 0.00 | 41 | 1015.9 |
| 20260506214558 | 78 | 0 | 1.0 | 9.0 | 0.00 | 0.00 | 0.00 | 43 | 1016.1 |
| 20260506213055 | 78 | 0 | 0.0 | 8.0 | 0.00 | 0.00 | 0.00 | 44 | 1016.3 |
| 20260506211558 | 78 | 0 | 0.0 | 3.0 | 0.00 | 0.00 | 0.00 | 45 | 1016.5 |
| 20260506210058 | 76 | 0 | 0.0 | 2.0 | 0.00 | 0.00 | 0.00 | 45 | 1016.6 |
| 20260506204559 | 75 | 0 | 0.0 | 5.0 | 0.00 | 0.00 | 0.00 | 45 | 1016.7 |
| 20260506203057 | 77 | 0 | 0.0 | 2.0 | 0.00 | 0.00 | 0.00 | 44 | 1017.0 |
| 20260506201558 | 76 | 0 | 0.0 | 9.0 | 0.00 | 0.00 | 0.00 | 45 | 1017.2 |
| 20260506200105 | 73 | 0 | 0.0 | 5.0 | 0.00 | 0.00 | 0.00 | 47 | 1017.5 |
| 20260506194602 | 74 | 0 | 0.0 | 4.0 | 0.00 | 0.00 | 0.00 | 46 | 1017.7 |
| 20260506193108 | 72 | 0 | 0.0 | 0.0 | 0.00 | 0.00 | 0.00 | 49 | 1017.8 |
| 20260506191558 | 71 | 0 | 0.0 | 3.0 | 0.00 | 0.00 | 0.00 | 50 | 1018.0 |
| 20260506190101 | 71 | 0 | 0.0 | 2.0 | 0.00 | 0.00 | 0.00 | 49 | 1018.2 |
| 20260506184600 | 70 | 0 | 0.0 | 2.0 | 0.00 | 0.00 | 0.00 | 50 | 1018.5 |
| 20260506183100 | 71 | 0 | 0.0 | 0.0 | 0.00 | 0.00 | 0.00 | 52 | 1018.6 |
| 20260506181604 | 69 | 0 | 0.0 | 2.0 | 0.00 | 0.00 | 0.00 | 52 | 1018.8 |
| 20260506180100 | 68 | 0 | 0.0 | 1.0 | 0.00 | 0.00 | 0.00 | 52 | 1018.8 |
| 20260506174559 | 66 | 0 | 0.0 | 1.0 | 0.00 | 0.00 | 0.00 | 55 | 1018.8 |
| 20260506173127 | 65 | 0 | 0.0 | 1.0 | 0.00 | 0.00 | 0.00 | 55 | 1018.7 |
| 20260506171603 | 65 | 0 | 0.0 | 0.0 | 0.00 | 0.00 | 0.00 | 56 | 1019.0 |
| 20260506170100 | 64 | 0 | 0.0 | 0.0 | 0.00 | 0.00 | 0.00 | 56 | 1018.9 |
| 20260506164607 | 62 | 0 | 0.0 | 0.0 | 0.00 | 0.00 | 0.00 | 63 | 1018.8 |
| 20260506163105 | 61 | 0 | 0.0 | 0.0 | 0.00 | 0.00 | 0.00 | 66 | 1019.0 |
| 20260506161636 | 61 | 0 | 0.0 | 0.0 | 0.00 | 0.00 | 0.00 | 71 | 1019.1 |
| 20260506160108 | 59 | 0 | 0.0 | 0.0 | 0.00 | 0.00 | 0.00 | 73 | 1019.0 |
| 20260506154600 | 58 | 0 | 0.0 | 0.0 | 0.00 | 0.00 | 0.00 | 76 | 1019.1 |
| 20260506153100 | 57 | 0 | 0.0 | 0.0 | 0.00 | 0.00 | 0.00 | 79 | 1019.1 |
| 20260506151558 | 56 | 0 | 0.0 | 0.0 | 0.00 | 0.00 | 0.00 | 81 | 1019.1 |
| 20260506144559 | 55 | 0 | 0.0 | 0.0 | 0.00 | 0.00 | 0.00 | 85 | 1019.1 |
| 20260506143101 | 53 | 0 | 0.0 | 0.0 | 0.00 | 0.00 | 0.00 | 87 | 1019.0 |
| 20260506141558 | 53 | 0 | 0.0 | 0.0 | 0.00 | 0.00 | 0.00 | 88 | 1018.9 |
| 20260506140059 | 52 | 0 | 0.0 | 0.0 | 0.00 | 0.00 | 0.00 | 88 | 1019.1 |
| 20260506134601 | 51 | 0 | 0.0 | 0.0 | 0.00 | 0.00 | 0.00 | 88 | 1018.9 |
| 20260506133057 | 51 | 0 | 0.0 | 0.0 | 0.00 | 0.00 | 0.00 | 88 | 1018.5 |
| 20260506131603 | 50 | 0 | 0.0 | 0.0 | 0.00 | 0.00 | 0.00 | 88 | 1018.4 |
| 20260506130135 | 50 | 0 | 0.0 | 0.0 | 0.00 | 0.00 | 0.00 | 88 | 1018.2 |
| 20260506124602 | 51 | 0 | 0.0 | 0.0 | 0.00 | 0.00 | 0.00 | 88 | 1018.2 |
| 20260506123057 | 50 | 0 | 0.0 | 0.0 | 0.00 | 0.00 | 0.00 | 88 | 1018.0 |
| 20260506121559 | 51 | 0 | 0.0 | 0.0 | 0.00 | 0.00 | 0.00 | 87 | 1017.9 |
| 20260506120108 | 51 | 0 | 0.0 | 0.0 | 0.00 | 0.00 | 0.00 | 87 | 1017.9 |
| 20260506114557 | 51 | 0 | 0.0 | 0.0 | 0.00 | 0.12 | 0.00 | 87 | 1017.9 |
| 20260506113059 | 51 | 0 | 0.0 | 0.0 | 0.00 | 0.12 | 0.00 | 87 | 1017.9 |
| 20260506111557 | 51 | 0 | 0.0 | 0.0 | 0.00 | 0.12 | 0.00 | 86 | 1017.9 |
| 20260506104559 | 52 | 0 | 0.0 | 0.0 | 0.00 | 0.30 | 0.00 | 86 | 1017.9 |
| 20260506103100 | 52 | 0 | 0.0 | 0.0 | 0.00 | 0.30 | 0.00 | 85 | 1017.9 |
| 20260506101610 | 52 | 0 | 0.0 | 0.0 | 0.00 | 0.30 | 0.00 | 85 | 1017.8 |
| 20260506100119 | 53 | 0 | 0.0 | 0.0 | 0.00 | 0.30 | 0.00 | 84 | 1017.8 |
| 20260506094558 | 53 | 0 | 0.0 | 0.0 | 0.00 | 0.30 | 0.00 | 84 | 1017.9 |
| 20260506093057 | 53 | 0 | 0.0 | 0.0 | 0.00 | 0.30 | 0.00 | 83 | 1018.0 |
| 20260506091556 | 53 | 0 | 0.0 | 0.0 | 0.00 | 0.30 | 0.00 | 83 | 1017.9 |
| 20260506090058 | 54 | 0 | 0.0 | 0.0 | 0.00 | 0.30 | 0.00 | 82 | 1017.9 |
| 20260506084622 | 54 | 0 | 0.0 | 0.0 | 0.00 | 0.30 | 0.00 | 82 | 1018.0 |
| 20260506083059 | 54 | 0 | 0.0 | 0.0 | 0.00 | 0.30 | 0.00 | 81 | 1018.1 |
| 20260506081600 | 54 | 0 | 0.0 | 0.0 | 0.00 | 0.30 | 0.00 | 80 | 1018.2 |
| 20260506073058 | 55 | 0 | 0.0 | 0.0 | 0.00 | 0.30 | 0.00 | 78 | 1018.1 |
| 20260506071559 | 55 | 0 | 0.0 | 0.0 | 0.00 | 0.30 | 0.00 | 78 | 1018.2 |
| 20260506061557 | 56 | 0 | 0.0 | 0.0 | 0.00 | 0.30 | 0.30 | 75 | 1017.6 |
| 20260506044704 | 59 | 0 | 0.0 | 1.0 | 0.00 | 0.30 | 0.30 | 69 | 1016.9 |
| 20260506043107 | 59 | 0 | 0.0 | 4.0 | 0.00 | 0.30 | 0.30 | 68 | 1016.8 |
| 20260506041604 | 59 | 0 | 0.0 | 3.0 | 0.00 | 0.30 | 0.30 | 67 | 1016.6 |
| 20260506040100 | 60 | 0 | 0.0 | 7.0 | 0.00 | 0.30 | 0.30 | 65 | 1016.4 |
| 20260506034626 | 60 | 0 | 0.0 | 2.0 | 0.00 | 0.30 | 0.30 | 63 | 1016.2 |
| 20260506033103 | 61 | 225 | 0.0 | 7.0 | 0.00 | 0.30 | 0.30 | 61 | 1015.9 |
| 20260506031605 | 61 | 0 | 0.0 | 6.0 | 0.00 | 0.30 | 0.30 | 59 | 1015.8 |
| 20260506030057 | 62 | 0 | 0.0 | 5.0 | 0.00 | 0.30 | 0.30 | 57 | 1015.5 |